createdAt,value
2019-03-23T00:00:43.902Z,18.33
2019-03-23T00:03:13.350Z,14.80
2019-03-23T00:05:43.089Z,16.70
2019-03-23T00:08:12.976Z,15.37
2019-03-23T00:10:42.332Z,18.47
2019-03-23T00:13:11.894Z,18.20
2019-03-23T00:15:41.233Z,16.53
2019-03-23T00:18:10.790Z,16.47
2019-03-23T00:20:40.092Z,20.43
2019-03-23T00:23:09.908Z,19.93
2019-03-23T00:25:39.221Z,19.97
2019-03-23T00:28:09.015Z,16.73
2019-03-23T00:30:38.344Z,18.00
2019-03-23T00:33:07.912Z,19.90
2019-03-23T00:35:37.285Z,19.60
2019-03-23T00:38:06.698Z,22.67
2019-03-23T00:40:36.217Z,22.70
2019-03-23T00:43:05.609Z,20.57
2019-03-23T00:45:34.931Z,22.63
2019-03-23T00:48:04.578Z,24.90
2019-03-23T00:50:33.894Z,18.47
2019-03-23T00:53:03.445Z,21.13
2019-03-23T00:55:33.317Z,22.03
2019-03-23T00:58:02.940Z,22.00
2019-03-23T01:00:32.325Z,23.23
2019-03-23T01:03:01.642Z,23.73
2019-03-23T01:05:31.192Z,23.20
2019-03-23T01:08:00.578Z,22.73
2019-03-23T01:10:29.893Z,22.77
2019-03-23T01:12:59.450Z,20.63
2019-03-23T01:15:29.017Z,17.17
2019-03-23T01:17:58.589Z,15.77
2019-03-23T01:20:28.202Z,17.33
2019-03-23T01:22:58.054Z,17.43
2019-03-23T01:25:27.635Z,20.10
2019-03-23T01:27:56.944Z,17.70
2019-03-23T01:30:26.509Z,20.80
2019-03-23T01:32:56.314Z,18.60
2019-03-23T01:35:26.097Z,22.50
2019-03-23T01:37:55.721Z,21.00
2019-03-23T01:40:25.024Z,24.83
2019-03-23T01:42:54.428Z,23.17
2019-03-23T01:45:24.443Z,20.73
2019-03-23T01:47:54.064Z,18.47
2019-03-23T01:50:23.668Z,16.60
2019-03-23T01:52:53.031Z,18.23
2019-03-23T01:55:22.581Z,17.20
2019-03-23T01:57:52.141Z,19.57
2019-03-23T02:00:21.454Z,15.43
2019-03-23T02:02:51.015Z,16.30
2019-03-23T02:05:20.562Z,22.53
2019-03-23T02:07:50.366Z,19.27
2019-03-23T02:10:19.933Z,14.60
2019-03-23T02:12:49.325Z,18.77
2019-03-23T02:15:19.266Z,18.53
2019-03-23T02:17:49.069Z,26.17
2019-03-23T02:20:18.613Z,24.67
2019-03-23T02:22:48.182Z,30.47
2019-03-23T02:25:17.743Z,31.57
2019-03-23T02:27:47.130Z,20.93
2019-03-23T02:30:16.748Z,15.73
2019-03-23T02:32:46.425Z,15.07
2019-03-23T02:35:16.228Z,17.07
2019-03-23T02:37:46.050Z,14.57
2019-03-23T02:40:15.686Z,12.80
2019-03-23T02:42:45.250Z,13.30
2019-03-23T02:45:15.210Z,13.20
2019-03-23T02:47:44.776Z,13.77
2019-03-23T02:50:14.718Z,15.50
2019-03-23T02:52:44.534Z,16.07
2019-03-23T02:55:14.171Z,16.20
2019-03-23T02:57:43.529Z,13.77
2019-03-23T03:00:14.216Z,14.93
2019-03-23T03:02:44.148Z,14.37
2019-03-23T03:05:13.843Z,18.33
2019-03-23T03:07:44.066Z,16.13
2019-03-23T03:10:16.402Z,15.27
2019-03-23T03:12:45.977Z,21.10
2019-03-23T03:15:15.435Z,22.50
2019-03-23T03:17:44.998Z,20.17
2019-03-23T03:20:14.396Z,19.67
2019-03-23T03:22:43.949Z,16.57
2019-03-23T03:25:13.325Z,16.40
2019-03-23T03:27:42.629Z,18.40
2019-03-23T03:30:12.459Z,16.47
2019-03-23T03:32:42.018Z,19.20
2019-03-23T03:35:11.823Z,15.37
2019-03-23T03:37:55.383Z,13.67
2019-03-23T03:40:12.617Z,13.97
2019-03-23T03:42:41.942Z,17.63
2019-03-23T03:45:15.565Z,14.37
2019-03-23T03:47:45.103Z,14.10
2019-03-23T03:50:14.490Z,15.90
2019-03-23T03:52:44.038Z,15.10
2019-03-23T03:55:13.335Z,15.63
2019-03-23T03:57:42.909Z,16.40
2019-03-23T04:00:12.791Z,15.07
2019-03-23T04:02:42.858Z,16.83
2019-03-23T04:05:12.490Z,28.63
2019-03-23T04:07:42.549Z,30.43
2019-03-23T04:10:12.515Z,32.13
2019-03-23T04:12:42.110Z,28.43
2019-03-23T04:15:11.790Z,26.60
2019-03-23T04:17:41.595Z,16.47
2019-03-23T04:20:11.845Z,18.53
2019-03-23T04:22:41.159Z,17.40
2019-03-23T04:25:11.115Z,22.03
2019-03-23T04:27:40.722Z,20.70
2019-03-23T04:30:10.547Z,19.23
2019-03-23T04:32:40.006Z,17.17
2019-03-23T04:35:10.005Z,14.70
2019-03-23T04:37:39.570Z,19.33
2019-03-23T04:40:10.522Z,20.90
2019-03-23T04:42:40.338Z,17.33
2019-03-23T04:45:11.287Z,16.23
2019-03-23T04:47:40.833Z,16.20
2019-03-23T04:50:11.181Z,14.83
2019-03-23T04:52:41.125Z,13.83
2019-03-23T04:55:11.585Z,12.23
2019-03-23T04:57:41.314Z,13.47
2019-03-23T05:00:12.090Z,15.53
2019-03-23T05:02:41.394Z,15.33
2019-03-23T05:05:11.337Z,14.53
2019-03-23T05:07:40.921Z,13.60
2019-03-23T05:10:12.119Z,12.67
2019-03-23T05:12:41.739Z,13.50
2019-03-23T05:15:12.170Z,16.20
2019-03-23T05:17:41.739Z,14.10
2019-03-23T05:20:11.213Z,13.93
2019-03-23T05:22:41.005Z,15.53
2019-03-23T05:25:22.313Z,15.60
2019-03-23T05:27:51.621Z,15.40
2019-03-23T05:30:21.498Z,18.43
2019-03-23T05:32:51.097Z,15.70
2019-03-23T05:35:21.013Z,16.90
2019-03-23T05:37:50.845Z,14.73
2019-03-23T05:40:20.409Z,16.00
2019-03-23T05:42:50.032Z,15.13
2019-03-23T05:45:19.816Z,15.87
2019-03-23T05:47:49.402Z,17.37
2019-03-23T05:50:18.966Z,17.37
2019-03-23T05:52:48.657Z,16.43
2019-03-23T05:55:17.985Z,18.60
2019-03-23T05:57:47.550Z,18.80
2019-03-23T06:00:18.902Z,16.77
2019-03-23T06:02:48.551Z,19.23
2019-03-23T06:05:18.189Z,13.83
2019-03-23T06:07:47.721Z,15.20
2019-03-23T06:10:17.338Z,13.27
2019-03-23T06:12:47.122Z,10.50
2019-03-23T06:15:16.926Z,12.33
2019-03-23T06:17:46.713Z,13.90
2019-03-23T06:20:16.019Z,10.43
2019-03-23T06:22:45.627Z,10.83
2019-03-23T06:25:15.496Z,11.50
2019-03-23T06:27:45.143Z,12.43
2019-03-23T06:30:14.597Z,12.83
2019-03-23T06:32:44.145Z,14.77
2019-03-23T06:35:13.964Z,12.00
2019-03-23T06:37:43.622Z,13.13
2019-03-23T06:40:13.447Z,18.43
2019-03-23T06:42:42.819Z,18.87
2019-03-23T06:45:12.374Z,15.40
2019-03-23T06:47:42.458Z,15.53
2019-03-23T06:50:13.086Z,12.33
2019-03-23T06:52:42.788Z,16.57
2019-03-23T06:55:12.337Z,13.00
2019-03-23T06:57:41.702Z,15.63
2019-03-23T07:00:11.830Z,14.90
2019-03-23T07:02:41.216Z,15.00
2019-03-23T07:05:11.110Z,49.07
2019-03-23T07:07:41.032Z,18.43
2019-03-23T07:10:10.925Z,17.60
2019-03-23T07:12:40.542Z,25.47
2019-03-23T07:15:19.417Z,18.03
2019-03-23T07:17:41.713Z,26.00
2019-03-23T07:20:12.004Z,16.17
2019-03-23T07:22:41.658Z,18.40
2019-03-23T07:25:11.758Z,17.73
2019-03-23T07:27:41.421Z,16.03
2019-03-23T07:30:13.509Z,15.73
2019-03-23T07:32:43.132Z,14.90
2019-03-23T07:35:13.869Z,17.50
2019-03-23T07:37:43.720Z,17.40
2019-03-23T07:40:13.298Z,16.80
2019-03-23T07:42:42.913Z,16.37
2019-03-23T07:45:12.581Z,16.50
2019-03-23T07:47:42.624Z,17.43
2019-03-23T07:50:12.712Z,16.90
2019-03-23T07:52:42.373Z,18.00
2019-03-23T07:55:13.082Z,18.80
2019-03-23T07:57:42.526Z,17.87
2019-03-23T08:00:17.203Z,14.93
2019-03-23T08:02:46.580Z,15.67
2019-03-23T08:05:16.146Z,17.87
2019-03-23T08:07:45.697Z,17.53
2019-03-23T08:10:31.609Z,18.50
2019-03-23T08:13:01.364Z,18.40
2019-03-23T08:15:30.859Z,17.87
2019-03-23T08:18:00.619Z,21.40
2019-03-23T08:20:30.380Z,22.07
2019-03-23T08:22:59.694Z,20.20
2019-03-23T08:25:29.656Z,17.70
2019-03-23T08:27:59.203Z,20.17
2019-03-23T08:30:29.277Z,21.10
2019-03-23T08:32:58.584Z,22.77
2019-03-23T08:35:27.961Z,23.93
2019-03-23T08:37:57.513Z,23.60
2019-03-23T08:40:27.446Z,21.87
2019-03-23T08:42:57.285Z,22.67
2019-03-23T08:45:26.845Z,23.97
2019-03-23T08:47:56.909Z,26.27
2019-03-23T08:50:26.232Z,24.67
2019-03-23T08:52:55.533Z,23.47
2019-03-23T08:55:24.920Z,25.57
2019-03-23T08:57:55.421Z,22.90
2019-03-23T09:00:25.245Z,26.47
2019-03-23T09:02:55.654Z,24.97
2019-03-23T09:05:25.494Z,23.17
2019-03-23T09:07:55.042Z,25.97
2019-03-23T09:10:24.898Z,25.07
2019-03-23T09:12:54.519Z,21.20
2019-03-23T09:15:24.074Z,23.20
2019-03-23T09:17:53.932Z,23.27
2019-03-23T09:20:23.852Z,20.93
2019-03-23T09:22:53.710Z,21.63
2019-03-23T09:25:23.049Z,19.97
2019-03-23T09:27:52.879Z,19.47
2019-03-23T09:30:22.521Z,21.53
2019-03-23T09:32:51.824Z,22.23
2019-03-23T09:35:21.629Z,21.43
2019-03-23T09:37:51.494Z,21.07
2019-03-23T09:40:20.885Z,21.93
2019-03-23T09:42:50.429Z,23.47
2019-03-23T09:45:20.256Z,21.80
2019-03-23T09:47:50.202Z,21.87
2019-03-23T09:50:19.793Z,26.67
2019-03-23T09:52:49.373Z,22.17
2019-03-23T09:55:18.885Z,21.90
2019-03-23T09:57:48.433Z,24.60
2019-03-23T10:00:18.079Z,21.03
2019-03-23T10:02:47.674Z,24.37
2019-03-23T10:05:16.985Z,25.70
2019-03-23T10:07:46.540Z,22.70
2019-03-23T10:10:21.672Z,23.10
2019-03-23T10:12:47.614Z,22.77
2019-03-23T10:15:17.242Z,19.30
2019-03-23T10:17:46.560Z,20.10
2019-03-23T10:20:16.115Z,24.87
2019-03-23T10:22:46.007Z,22.43
2019-03-23T10:25:15.321Z,24.50
2019-03-23T10:27:44.993Z,23.47
2019-03-23T10:30:21.209Z,21.53
2019-03-23T10:32:53.532Z,19.57
2019-03-23T10:35:23.169Z,20.40
2019-03-23T10:37:52.861Z,21.73
2019-03-23T10:40:32.087Z,21.60
2019-03-23T10:42:53.853Z,21.03
2019-03-23T10:45:23.548Z,21.00
2019-03-23T10:47:53.004Z,23.37
2019-03-23T10:50:22.979Z,21.63
2019-03-23T10:52:52.788Z,22.33
2019-03-23T10:55:22.693Z,23.70
2019-03-23T10:57:52.149Z,20.27
2019-03-23T11:00:22.391Z,24.30
2019-03-23T11:02:52.150Z,20.17
2019-03-23T11:05:21.849Z,21.07
2019-03-23T11:07:51.460Z,23.53
2019-03-23T11:10:21.344Z,24.80
2019-03-23T11:12:51.292Z,22.67
2019-03-23T11:15:21.280Z,22.00
2019-03-23T11:17:50.697Z,21.90
2019-03-23T11:20:20.011Z,22.70
2019-03-23T11:22:49.335Z,21.37
2019-03-23T11:25:19.021Z,21.30
2019-03-23T11:27:48.577Z,18.70
2019-03-23T11:30:19.013Z,21.87
2019-03-23T11:32:48.552Z,20.83
2019-03-23T11:35:17.934Z,25.03
2019-03-23T11:38:06.405Z,21.93
2019-03-23T11:40:36.744Z,22.17
2019-03-23T11:43:06.736Z,22.33
2019-03-23T11:45:36.421Z,20.70
2019-03-23T11:48:06.132Z,20.57
2019-03-23T11:50:36.090Z,20.90
2019-03-23T11:53:05.828Z,17.87
2019-03-23T11:55:35.813Z,20.80
2019-03-23T11:58:05.625Z,19.67
2019-03-23T12:00:35.665Z,18.37
2019-03-23T12:03:05.817Z,20.03
2019-03-23T12:05:35.457Z,19.97
2019-03-23T12:08:04.949Z,21.70
2019-03-23T12:10:34.690Z,20.67
2019-03-23T12:13:04.833Z,21.00
2019-03-23T12:15:34.520Z,17.47
2019-03-23T12:18:04.605Z,21.20
2019-03-23T12:20:34.252Z,19.60
2019-03-23T12:23:04.467Z,18.50
2019-03-23T12:25:34.352Z,18.30
2019-03-23T12:28:03.813Z,19.10
2019-03-23T12:30:33.389Z,18.07
2019-03-23T12:33:03.229Z,19.13
2019-03-23T12:35:32.849Z,19.83
2019-03-23T12:38:02.817Z,19.13
2019-03-23T12:40:32.125Z,19.97
2019-03-23T12:43:01.849Z,19.40
2019-03-23T12:45:31.568Z,21.53
2019-03-23T12:48:01.125Z,21.47
2019-03-23T12:50:30.973Z,17.53
2019-03-23T12:53:00.295Z,20.43
2019-03-23T12:55:29.905Z,19.93
2019-03-23T12:58:00.195Z,25.97
2019-03-23T13:00:29.578Z,20.73
2019-03-23T13:02:58.956Z,22.13
2019-03-23T13:05:28.818Z,17.77
2019-03-23T13:07:58.405Z,20.73
2019-03-23T13:10:28.356Z,21.97
2019-03-23T13:12:58.491Z,22.13
2019-03-23T13:15:28.577Z,19.73
2019-03-23T13:17:57.911Z,19.50
2019-03-23T13:20:27.705Z,21.53
2019-03-23T13:23:00.060Z,16.93
2019-03-23T13:25:30.361Z,17.47
2019-03-23T13:28:00.006Z,19.23
2019-03-23T13:30:29.934Z,19.47
2019-03-23T13:33:00.138Z,18.23
2019-03-23T13:35:29.709Z,19.67
2019-03-23T13:37:59.189Z,18.77
2019-03-23T13:40:28.885Z,18.47
2019-03-23T13:42:59.192Z,18.27
2019-03-23T13:45:29.117Z,16.87
2019-03-23T13:47:58.733Z,17.13
2019-03-23T13:50:29.248Z,18.70
2019-03-23T13:52:59.144Z,19.07
2019-03-23T13:55:29.732Z,18.40
2019-03-23T13:58:08.732Z,17.77
2019-03-23T14:00:38.177Z,20.30
2019-03-23T14:03:07.854Z,18.53
2019-03-23T14:05:37.186Z,18.20
2019-03-23T14:08:06.681Z,18.10
2019-03-23T14:10:36.378Z,18.90
2019-03-23T14:13:05.705Z,17.13
2019-03-23T14:15:35.577Z,18.73
2019-03-23T14:18:05.628Z,18.35
2019-03-23T14:20:35.321Z,15.90
2019-03-23T14:23:05.532Z,19.60
2019-03-23T14:25:34.938Z,16.47
2019-03-23T14:28:04.396Z,18.73
2019-03-23T14:30:34.021Z,19.03
2019-03-23T14:33:03.418Z,17.70
2019-03-23T14:35:33.342Z,16.83
2019-03-23T14:38:02.949Z,16.17
2019-03-23T14:40:32.673Z,18.73
2019-03-23T14:43:02.021Z,18.90
2019-03-23T14:45:31.929Z,16.43
2019-03-23T14:48:01.244Z,21.47
2019-03-23T14:50:30.563Z,19.53
2019-03-23T14:53:00.419Z,17.63
2019-03-23T14:55:29.830Z,19.20
2019-03-23T14:57:59.769Z,17.83
2019-03-23T15:00:33.523Z,18.67
2019-03-23T15:03:03.116Z,16.97
2019-03-23T15:05:32.866Z,19.57
2019-03-23T15:08:03.038Z,20.70
2019-03-23T15:10:32.700Z,24.63
2019-03-23T15:13:02.018Z,19.73
2019-03-23T15:15:31.760Z,21.10
2019-03-23T15:18:01.301Z,23.03
2019-03-23T15:20:30.697Z,21.70
2019-03-23T15:23:00.246Z,20.47
2019-03-23T15:25:30.520Z,21.57
2019-03-23T15:28:00.353Z,20.63
2019-03-23T15:30:30.425Z,21.67
2019-03-23T15:33:00.595Z,21.50
2019-03-23T15:35:29.905Z,22.57
2019-03-23T15:37:59.555Z,23.43
2019-03-23T15:40:29.227Z,21.87
2019-03-23T15:42:59.222Z,23.27
2019-03-23T15:45:28.807Z,22.53
2019-03-23T15:47:58.481Z,23.73
2019-03-23T15:50:28.474Z,21.77
2019-03-23T15:52:58.259Z,21.17
2019-03-23T15:55:27.818Z,22.67
2019-03-23T15:57:57.880Z,19.30
2019-03-23T16:00:27.639Z,23.27
2019-03-23T16:02:57.477Z,22.73
2019-03-23T16:05:27.118Z,23.70
2019-03-23T16:07:56.430Z,22.70
2019-03-23T16:10:26.057Z,20.07
2019-03-23T16:12:55.633Z,20.80
2019-03-23T16:15:25.221Z,21.77
2019-03-23T16:17:54.557Z,32.50
2019-03-23T16:20:24.183Z,36.37
2019-03-23T16:22:53.569Z,32.00
2019-03-23T16:25:23.592Z,34.37
2019-03-23T16:27:53.490Z,38.27
2019-03-23T16:30:30.894Z,38.57
2019-03-23T16:33:00.826Z,40.67
2019-03-23T16:35:30.497Z,37.03
2019-03-23T16:38:19.156Z,37.67
2019-03-23T16:40:48.819Z,41.17
2019-03-23T16:43:19.070Z,41.73
2019-03-23T16:45:48.392Z,41.10
2019-03-23T16:48:18.032Z,39.30
2019-03-23T16:50:47.410Z,39.43
2019-03-23T16:53:17.114Z,38.13
2019-03-23T16:55:46.848Z,36.23
2019-03-23T16:58:17.488Z,37.17
2019-03-23T17:00:46.905Z,40.40
2019-03-23T17:03:16.533Z,38.93
2019-03-23T17:05:46.531Z,37.47
2019-03-23T17:08:16.348Z,37.77
2019-03-23T17:10:45.686Z,35.00
2019-03-23T17:13:15.340Z,35.37
2019-03-23T17:15:44.684Z,33.47
2019-03-23T17:18:14.490Z,38.47
2019-03-23T17:20:43.965Z,36.77
2019-03-23T17:23:14.231Z,34.53
2019-03-23T17:25:44.310Z,34.33
2019-03-23T17:28:13.797Z,28.73
2019-03-23T17:30:43.590Z,38.97
2019-03-23T17:33:13.266Z,32.07
2019-03-23T17:35:43.121Z,31.80
2019-03-23T17:38:15.136Z,34.17
2019-03-23T17:40:44.404Z,32.40
2019-03-23T17:43:13.966Z,36.90
2019-03-23T17:45:43.897Z,31.37
2019-03-23T17:48:14.225Z,35.63
2019-03-23T17:50:43.538Z,36.83
2019-03-23T17:53:13.089Z,34.10
2019-03-23T17:55:42.906Z,38.43
2019-03-23T17:58:12.476Z,37.03
2019-03-23T18:00:42.264Z,36.87
2019-03-23T18:03:11.903Z,34.83
2019-03-23T18:05:41.203Z,33.67
2019-03-23T18:08:10.982Z,32.43
2019-03-23T18:10:41.013Z,32.07
2019-03-23T18:13:16.464Z,31.23
2019-03-23T18:15:43.207Z,29.80
2019-03-23T18:18:12.625Z,29.30
2019-03-23T18:20:43.124Z,28.93
2019-03-23T18:23:15.689Z,32.57
2019-03-23T18:25:45.316Z,35.27
2019-03-23T18:28:15.755Z,28.10
2019-03-23T18:30:45.648Z,30.97
2019-03-23T18:33:16.089Z,32.30
2019-03-23T18:35:45.493Z,30.07
2019-03-23T18:38:15.396Z,31.80
2019-03-23T18:40:45.517Z,28.60
2019-03-23T18:43:15.274Z,35.00
2019-03-23T18:45:45.243Z,58.30
2019-03-23T18:48:15.213Z,65.63
2019-03-23T18:50:45.082Z,56.50
2019-03-23T18:53:15.917Z,37.97
2019-03-23T18:55:45.331Z,32.80
2019-03-23T18:58:15.545Z,33.27
2019-03-23T19:00:45.607Z,28.00
2019-03-23T19:03:15.874Z,31.30
2019-03-23T19:05:45.225Z,30.23
2019-03-23T19:08:14.929Z,35.23
2019-03-23T19:10:44.642Z,42.77
2019-03-23T19:13:14.337Z,45.40
2019-03-23T19:15:44.131Z,47.97
2019-03-23T19:18:13.791Z,40.63
2019-03-23T19:20:43.294Z,39.07
2019-03-23T19:23:13.146Z,36.67
2019-03-23T19:25:42.778Z,33.30
2019-03-23T19:28:13.029Z,37.27
2019-03-23T19:30:43.175Z,37.57
2019-03-23T19:33:12.853Z,31.87
2019-03-23T19:35:42.522Z,31.27
2019-03-23T19:38:13.045Z,29.97
2019-03-23T19:40:42.413Z,31.87
2019-03-23T19:43:11.741Z,28.93
2019-03-23T19:45:41.366Z,28.87
2019-03-23T19:48:11.209Z,28.57
2019-03-23T19:50:40.792Z,27.73
2019-03-23T19:53:10.427Z,27.53
2019-03-23T19:55:39.876Z,31.20
2019-03-23T19:58:09.809Z,29.53
2019-03-23T20:00:39.113Z,31.77
2019-03-23T20:03:08.652Z,30.50
2019-03-23T20:05:37.962Z,26.23
2019-03-23T20:08:07.294Z,30.20
2019-03-23T20:10:37.279Z,27.17
2019-03-23T20:13:07.053Z,28.47
2019-03-23T20:15:36.681Z,26.93
2019-03-23T20:18:06.481Z,30.27
2019-03-23T20:20:36.119Z,29.43
2019-03-23T20:23:06.136Z,30.47
2019-03-23T20:25:35.809Z,29.10
2019-03-23T20:28:05.609Z,25.13
2019-03-23T20:30:37.038Z,23.00
2019-03-23T20:33:06.638Z,24.90
2019-03-23T20:35:36.626Z,25.13
2019-03-23T20:38:06.640Z,24.27
2019-03-23T20:40:36.622Z,24.37
2019-03-23T20:43:06.278Z,21.27
2019-03-23T20:45:36.050Z,20.10
2019-03-23T20:48:05.775Z,21.97
2019-03-23T20:50:36.137Z,19.50
2019-03-23T20:53:06.023Z,21.10
2019-03-23T20:55:35.393Z,23.20
2019-03-23T20:58:04.920Z,22.60
2019-03-23T21:00:34.225Z,22.63
2019-03-23T21:03:03.623Z,22.00
2019-03-23T21:05:34.448Z,24.40
2019-03-23T21:08:04.037Z,28.90
2019-03-23T21:10:33.691Z,31.33
2019-03-23T21:13:03.291Z,38.73
2019-03-23T21:15:32.898Z,39.87
2019-03-23T21:18:02.382Z,49.63
2019-03-23T21:20:32.095Z,48.20
2019-03-23T21:23:02.441Z,40.97
2019-03-23T21:25:31.793Z,45.03
2019-03-23T21:28:01.431Z,33.80
2019-03-23T21:30:31.220Z,28.77
2019-03-23T21:33:00.817Z,26.07
2019-03-23T21:35:30.738Z,30.23
2019-03-23T21:38:00.328Z,31.50
2019-03-23T21:40:29.994Z,29.87
2019-03-23T21:42:59.319Z,29.40
2019-03-23T21:45:29.297Z,30.50
2019-03-23T21:47:58.803Z,28.63
2019-03-23T21:50:28.778Z,32.13
2019-03-23T21:52:58.553Z,35.57
2019-03-23T21:55:28.210Z,43.17
2019-03-23T21:57:57.622Z,34.33
2019-03-23T22:00:32.601Z,30.57
2019-03-23T22:03:02.301Z,34.07
2019-03-23T22:05:32.403Z,38.20
2019-03-23T22:08:02.140Z,42.07
2019-03-23T22:10:31.837Z,40.87
2019-03-23T22:13:01.290Z,35.23
2019-03-23T22:15:32.942Z,34.93
2019-03-23T22:18:02.261Z,39.50
2019-03-23T22:20:31.973Z,41.73
2019-03-23T22:23:01.846Z,37.90
2019-03-23T22:25:31.229Z,38.87
2019-03-23T22:28:00.557Z,37.00
2019-03-23T22:30:30.267Z,31.23
2019-03-23T22:33:00.004Z,25.60
2019-03-23T22:35:29.757Z,25.63
2019-03-23T22:37:59.085Z,23.50
2019-03-23T22:40:28.517Z,29.13
2019-03-23T22:42:57.898Z,26.30
2019-03-23T22:45:27.329Z,32.27
2019-03-23T22:47:56.993Z,34.57
2019-03-23T22:50:26.357Z,33.90
2019-03-23T22:52:55.662Z,33.60
2019-03-23T22:55:24.973Z,34.77
2019-03-23T22:57:54.472Z,28.43
2019-03-23T23:00:43.656Z,27.70
2019-03-23T23:03:14.305Z,28.73
2019-03-23T23:05:43.909Z,27.77
2019-03-23T23:08:13.538Z,28.33
2019-03-23T23:10:43.665Z,27.93
2019-03-23T23:13:13.033Z,29.43
2019-03-23T23:15:42.594Z,30.50
2019-03-23T23:18:12.241Z,28.70
2019-03-23T23:20:41.557Z,27.17
2019-03-23T23:23:10.857Z,26.33
2019-03-23T23:25:40.892Z,25.97
2019-03-23T23:28:10.663Z,28.77
2019-03-23T23:30:40.514Z,27.80
2019-03-23T23:33:10.219Z,20.53
2019-03-23T23:35:39.915Z,28.67
2019-03-23T23:38:09.292Z,25.93
2019-03-23T23:40:39.000Z,28.17
2019-03-23T23:43:08.631Z,28.47
2019-03-23T23:45:38.373Z,26.90
2019-03-23T23:48:08.076Z,28.20
2019-03-23T23:50:37.406Z,29.77
2019-03-23T23:53:06.797Z,26.77
2019-03-23T23:55:36.614Z,24.70
2019-03-23T23:58:06.025Z,25.07
